createdAt,value
2023-05-10T04:31:32.966Z,59.1381
2023-05-10T04:32:35.035Z,58.9083
2023-05-10T04:33:37.042Z,58.2486
2023-05-10T04:34:39.169Z,57.5137
2023-05-10T04:35:41.194Z,56.6964
2023-05-10T04:36:43.201Z,56.0800
2023-05-10T04:37:45.884Z,55.4401
2023-05-10T04:38:47.283Z,54.8410
2023-05-10T04:39:51.897Z,54.4816
2023-05-10T04:40:51.379Z,54.0546
2023-05-10T04:41:53.439Z,53.6776
2023-05-10T04:42:55.466Z,53.1743
2023-05-10T04:43:57.510Z,52.8987
2023-05-10T04:44:59.596Z,52.6542
2023-05-10T04:46:01.614Z,52.6158
2023-05-10T04:47:03.643Z,52.1505
2023-05-10T04:48:05.777Z,51.9124
2023-05-10T04:49:07.723Z,51.7330
2023-05-10T04:50:09.751Z,51.5708
2023-05-10T04:51:11.800Z,51.7314
2023-05-10T04:52:13.861Z,52.7396
2023-05-10T04:53:16.056Z,53.8638
2023-05-10T04:54:17.941Z,53.0686
2023-05-10T04:55:19.988Z,53.0763
2023-05-10T04:56:22.025Z,53.3363
2023-05-10T04:57:24.066Z,53.3134
2023-05-10T04:58:26.104Z,52.9320
2023-05-10T04:59:28.211Z,52.2526
2023-05-10T05:00:30.189Z,51.3612
2023-05-10T05:01:32.319Z,51.1572
2023-05-10T05:02:34.371Z,50.9777
2023-05-10T05:03:36.342Z,50.8924
2023-05-10T05:04:38.365Z,50.7102
2023-05-10T05:05:40.410Z,50.5213
2023-05-10T05:06:42.467Z,50.4340
2023-05-10T05:07:44.492Z,50.2770
2023-05-10T05:08:46.528Z,50.1222
2023-05-10T05:09:48.584Z,50.2035
2023-05-10T05:10:50.698Z,50.1900
2023-05-10T05:11:52.681Z,50.2613
2023-05-10T05:12:54.731Z,50.0415
2023-05-10T05:13:56.740Z,49.9668
2023-05-10T05:14:58.800Z,49.7768
2023-05-10T05:16:00.857Z,49.7965
2023-05-10T05:17:02.881Z,49.7434
2023-05-10T05:18:04.994Z,49.8025
2023-05-10T05:19:06.971Z,49.6502
2023-05-10T05:20:09.024Z,49.6013
2023-05-10T05:21:11.072Z,49.4625
2023-05-10T05:22:13.114Z,49.3187
2023-05-10T05:23:15.142Z,49.4019
2023-05-10T05:24:17.194Z,49.4769
2023-05-10T05:25:19.244Z,49.4254
2023-05-10T05:26:21.301Z,49.2511
2023-05-10T05:27:23.326Z,49.2559
2023-05-10T05:28:25.377Z,49.2196
2023-05-10T05:29:27.442Z,49.1175
2023-05-10T05:30:29.443Z,49.0481
2023-05-10T05:31:31.558Z,49.0237
2023-05-10T05:32:33.724Z,48.9138
2023-05-10T05:33:37.531Z,48.8619
2023-05-10T05:34:37.639Z,48.9651
2023-05-10T05:35:40.478Z,49.2453
2023-05-10T05:36:41.731Z,49.1337
2023-05-10T05:37:43.788Z,49.0002
2023-05-10T05:38:45.802Z,49.0011
2023-05-10T05:39:47.957Z,48.9508
2023-05-10T05:40:50.045Z,49.1478
2023-05-10T05:41:51.960Z,49.3099
2023-05-10T05:42:53.986Z,49.3150
2023-05-10T05:43:56.043Z,49.3797
2023-05-10T05:44:58.059Z,49.5032
2023-05-10T05:46:00.202Z,49.6405
2023-05-10T05:47:02.284Z,49.8982
2023-05-10T05:48:04.359Z,50.0652
2023-05-10T05:49:06.306Z,50.1712
2023-05-10T05:50:08.355Z,49.9803
2023-05-10T05:51:12.063Z,49.8295
2023-05-10T05:52:12.400Z,49.8802
2023-05-10T05:53:31.400Z,50.1404
2023-05-10T05:54:17.803Z,50.0745
2023-05-10T05:55:20.552Z,50.1673
2023-05-10T05:56:20.614Z,50.1896
2023-05-10T05:57:22.630Z,50.4947
2023-05-10T05:58:24.671Z,50.8868
2023-05-10T05:59:26.757Z,50.9832
2023-05-10T06:00:31.513Z,51.3362
2023-05-10T06:01:31.361Z,51.9761
2023-05-10T06:02:32.946Z,51.8172
2023-05-10T06:03:35.032Z,52.4946
2023-05-10T06:04:36.994Z,52.3070
2023-05-10T06:05:39.009Z,52.7891
2023-05-10T06:06:42.009Z,52.0380
2023-05-10T06:07:43.906Z,51.7625
2023-05-10T06:08:45.121Z,52.3652
2023-05-10T06:09:47.201Z,52.0369
2023-05-10T06:10:49.227Z,52.1974
2023-05-10T06:11:51.323Z,52.2240
2023-05-10T06:12:53.419Z,52.8896
2023-05-10T06:13:55.408Z,53.1259
2023-05-10T06:14:57.460Z,52.5642
2023-05-10T06:15:59.490Z,52.6632
2023-05-10T06:17:01.830Z,53.1370
2023-05-10T06:18:06.688Z,52.8076
2023-05-10T06:19:06.764Z,52.6844
2023-05-10T06:20:07.664Z,52.9586
2023-05-10T06:21:09.691Z,53.1675
2023-05-10T06:22:12.729Z,53.2211
2023-05-10T06:23:13.809Z,53.4505
2023-05-10T06:24:14.308Z,52.9931
2023-05-10T06:25:20.527Z,52.8240
2023-05-10T06:26:20.058Z,52.7565
2023-05-10T06:27:21.992Z,52.4832
2023-05-10T06:28:27.057Z,52.1670
2023-05-10T06:29:26.068Z,52.2931
2023-05-10T06:30:28.120Z,52.3511
2023-05-10T06:31:30.220Z,52.7433
2023-05-10T06:32:32.266Z,52.3431
2023-05-10T06:33:34.336Z,52.2903
2023-05-10T06:34:36.315Z,52.3708
2023-05-10T06:35:38.348Z,52.1421
2023-05-10T06:36:40.390Z,53.0251
2023-05-10T06:37:42.447Z,52.0000
2023-05-10T06:38:44.467Z,51.7978
2023-05-10T06:39:46.526Z,51.2366
2023-05-10T06:40:48.580Z,50.7289
2023-05-10T06:41:50.603Z,50.6146
2023-05-10T06:42:52.692Z,50.2821
2023-05-10T06:43:54.865Z,49.8045
2023-05-10T06:44:56.729Z,49.5297
2023-05-10T06:45:58.847Z,49.6651
2023-05-10T06:47:00.846Z,49.7192
2023-05-10T06:48:04.577Z,49.8045
2023-05-10T06:49:04.937Z,49.6786
2023-05-10T06:50:07.028Z,49.4719
2023-05-10T06:51:09.043Z,49.6529
2023-05-10T06:52:11.164Z,49.5658
2023-05-10T06:53:13.104Z,49.6696
2023-05-10T06:54:15.191Z,49.9923
2023-05-10T06:55:17.455Z,49.6588
2023-05-10T06:56:19.261Z,49.4323
2023-05-10T06:57:31.169Z,49.4343
2023-05-10T06:58:23.328Z,49.3588
2023-05-10T06:59:25.452Z,49.3811
2023-05-10T07:00:27.473Z,49.6428
2023-05-10T07:01:29.493Z,49.5132
2023-05-10T07:02:31.545Z,49.3030
2023-05-10T07:03:33.613Z,49.3033
2023-05-10T07:04:35.693Z,49.3248
2023-05-10T07:05:37.860Z,49.5320
2023-05-10T07:06:39.734Z,50.3334
2023-05-10T07:07:41.767Z,49.7822
2023-05-10T07:08:43.820Z,49.7417
2023-05-10T07:09:45.869Z,50.0403
2023-05-10T07:10:47.909Z,49.8079
2023-05-10T07:11:49.942Z,49.5082
2023-05-10T07:12:52.226Z,49.6462
2023-05-10T07:13:56.063Z,49.6971
2023-05-10T07:14:56.096Z,49.5875
2023-05-10T07:15:58.123Z,49.7425
2023-05-10T07:17:00.296Z,50.0009
2023-05-10T07:18:02.288Z,49.9918
2023-05-10T07:19:04.270Z,50.3011
2023-05-10T07:20:06.388Z,50.5688
2023-05-10T07:21:08.354Z,50.5193
2023-05-10T07:22:10.404Z,50.6017
2023-05-10T07:23:12.445Z,50.4511
2023-05-10T07:24:14.511Z,50.0225
2023-05-10T07:25:16.623Z,50.1360
2023-05-10T07:26:18.617Z,49.8781
2023-05-10T07:27:20.605Z,49.8841
2023-05-10T07:28:22.688Z,49.7259
2023-05-10T07:29:24.764Z,49.8518
2023-05-10T07:30:26.780Z,49.7628
2023-05-10T07:31:28.893Z,49.7549
2023-05-10T07:32:30.886Z,49.3129
2023-05-10T07:33:32.964Z,49.4112
2023-05-10T07:34:34.966Z,49.1230
2023-05-10T07:35:37.100Z,48.9943
2023-05-10T07:36:39.034Z,48.9750
2023-05-10T07:37:41.112Z,48.9923
2023-05-10T07:38:43.136Z,49.1466
2023-05-10T07:39:45.216Z,48.9908
2023-05-10T07:40:47.207Z,48.9116
2023-05-10T07:41:49.279Z,49.0805
2023-05-10T07:42:51.322Z,49.1053
2023-05-10T07:43:53.360Z,48.9352
2023-05-10T07:44:55.399Z,49.0626
2023-05-10T07:45:57.470Z,49.1295
2023-05-10T07:46:59.484Z,48.9752
2023-05-10T07:48:01.553Z,48.9998
2023-05-10T07:49:03.591Z,49.0283
2023-05-10T07:50:07.874Z,49.0862
2023-05-10T07:51:07.688Z,49.3516
2023-05-10T07:52:09.747Z,49.2243
2023-05-10T07:53:11.852Z,49.0566
2023-05-10T07:54:13.870Z,48.8812
2023-05-10T07:55:16.096Z,49.0168
2023-05-10T07:56:18.513Z,49.2089
2023-05-10T07:57:20.007Z,49.2802
2023-05-10T07:58:24.047Z,49.2729
2023-05-10T07:59:25.971Z,49.5487
2023-05-10T08:00:26.126Z,49.1839
2023-05-10T08:01:28.142Z,49.7411
2023-05-10T08:02:30.343Z,50.2253
2023-05-10T08:03:32.487Z,49.6921
2023-05-10T08:04:34.322Z,48.9615
2023-05-10T08:05:36.349Z,49.1371
2023-05-10T08:06:38.399Z,48.9028
2023-05-10T08:07:40.412Z,48.8940
2023-05-10T08:08:42.543Z,48.6677
2023-05-10T08:09:44.532Z,48.8437
2023-05-10T08:10:46.603Z,48.7225
2023-05-10T08:11:49.113Z,48.7672
2023-05-10T08:12:50.769Z,48.8019
2023-05-10T08:13:53.495Z,48.1252
2023-05-10T08:14:56.488Z,48.1387
2023-05-10T08:15:57.082Z,48.0685
2023-05-10T08:17:11.632Z,48.3065
2023-05-10T08:18:00.973Z,48.4211
2023-05-10T08:19:04.319Z,48.2719
2023-05-10T08:20:05.339Z,48.1806
2023-05-10T08:21:07.051Z,48.5211
2023-05-10T08:22:09.087Z,48.5631
2023-05-10T08:23:11.120Z,48.6976
2023-05-10T08:24:13.280Z,48.6548
2023-05-10T08:25:18.155Z,48.6860
2023-05-10T08:26:17.276Z,48.6915
2023-05-10T08:27:19.460Z,48.6768
2023-05-10T08:28:21.461Z,48.8439
2023-05-10T08:29:23.366Z,48.7501
2023-05-10T08:30:25.453Z,48.6816
2023-05-10T08:31:27.894Z,48.7472
2023-05-10T08:32:29.556Z,48.8364
2023-05-10T08:33:31.608Z,48.7124
2023-05-10T08:34:34.541Z,48.9601
2023-05-10T08:35:35.768Z,48.4882
2023-05-10T08:36:37.783Z,49.0579
2023-05-10T08:37:40.228Z,48.8912
2023-05-10T08:38:41.872Z,48.7392
2023-05-10T08:39:43.950Z,48.8415
2023-05-10T08:40:46.132Z,48.5445
2023-05-10T08:41:49.004Z,48.8107
2023-05-10T08:42:50.220Z,48.3177
2023-05-10T08:43:55.109Z,48.0550
2023-05-10T08:44:54.182Z,47.6895
2023-05-10T08:45:56.244Z,47.6839
2023-05-10T08:46:58.268Z,47.8389
2023-05-10T08:48:00.440Z,47.8310
2023-05-10T08:49:02.342Z,47.8160
2023-05-10T08:50:04.377Z,47.8754
2023-05-10T08:51:06.552Z,47.9564
2023-05-10T08:52:08.609Z,47.6886
2023-05-10T08:53:10.702Z,47.5782
2023-05-10T08:54:12.553Z,47.7513
2023-05-10T08:55:14.739Z,48.0223
2023-05-10T08:56:16.730Z,48.5694
2023-05-10T08:57:18.755Z,48.5170
2023-05-10T08:58:20.802Z,48.5837
2023-05-10T08:59:22.919Z,48.3104
2023-05-10T09:00:26.097Z,48.4134
2023-05-10T09:01:29.603Z,47.9848
2023-05-10T09:02:29.566Z,48.1925
2023-05-10T09:03:30.947Z,48.4759
2023-05-10T09:04:33.052Z,48.4404
2023-05-10T09:05:37.124Z,48.4132
2023-05-10T09:06:38.033Z,48.4593
2023-05-10T09:07:40.217Z,48.6393
2023-05-10T09:08:41.188Z,48.1389
2023-05-10T09:09:44.626Z,48.0274
2023-05-10T09:10:49.222Z,47.9230
2023-05-10T09:11:47.361Z,47.6188
2023-05-10T09:13:05.114Z,47.6585
2023-05-10T09:13:52.215Z,47.8199
2023-05-10T09:14:53.457Z,47.8901
2023-05-10T09:16:00.328Z,47.9277
2023-05-10T09:16:57.612Z,47.6579
2023-05-10T09:18:01.499Z,47.9240
2023-05-10T09:19:01.665Z,47.9482
2023-05-10T09:20:03.729Z,47.8923
2023-05-10T09:21:05.714Z,47.5067
2023-05-10T09:22:08.579Z,47.8714
2023-05-10T09:23:09.805Z,47.8003
2023-05-10T09:24:11.846Z,47.6894
2023-05-10T09:25:14.801Z,47.7778
2023-05-10T09:26:15.984Z,47.8279
2023-05-10T09:27:17.995Z,47.8238
2023-05-10T09:28:20.114Z,47.9774
2023-05-10T09:29:22.130Z,48.1063
2023-05-10T09:30:24.274Z,48.0909
2023-05-10T09:31:26.359Z,48.0298
2023-05-10T09:32:28.310Z,47.8908
2023-05-10T09:33:30.291Z,47.9041
2023-05-10T09:34:35.666Z,48.0057
2023-05-10T09:35:34.354Z,48.1914
2023-05-10T09:36:36.389Z,48.2031
2023-05-10T09:37:39.016Z,47.7987
2023-05-10T09:38:40.472Z,47.8963
2023-05-10T09:39:42.534Z,47.8955
2023-05-10T09:40:44.656Z,47.5729
2023-05-10T09:41:46.587Z,47.7983
2023-05-10T09:42:48.653Z,47.3837
2023-05-10T09:43:50.661Z,47.3220
2023-05-10T09:44:52.732Z,47.5488
2023-05-10T09:45:54.866Z,47.9194
2023-05-10T09:46:57.377Z,48.1001
2023-05-10T09:47:58.951Z,47.8774
2023-05-10T09:49:00.927Z,48.0000
2023-05-10T09:50:02.928Z,48.1731
2023-05-10T09:51:05.083Z,48.1952
2023-05-10T09:52:07.116Z,48.1666
2023-05-10T09:53:09.057Z,48.1617
2023-05-10T09:54:11.134Z,48.5481
2023-05-10T09:55:13.157Z,47.7688
2023-05-10T09:56:15.222Z,47.8097
2023-05-10T09:57:17.264Z,47.6727
2023-05-10T09:58:19.416Z,47.8734
2023-05-10T09:59:21.299Z,47.9443
2023-05-10T10:00:23.430Z,47.6254
2023-05-10T10:01:25.473Z,47.4736
2023-05-10T10:02:27.521Z,47.7882
2023-05-10T10:03:30.413Z,47.9140
2023-05-10T10:04:31.684Z,47.8745
2023-05-10T10:05:33.614Z,47.5022
2023-05-10T10:06:35.635Z,47.8152
2023-05-10T10:07:37.686Z,47.7351
2023-05-10T10:08:39.737Z,47.5698
2023-05-10T10:09:41.785Z,46.8887
2023-05-10T10:10:43.798Z,46.6944
2023-05-10T10:11:46.106Z,46.1301
2023-05-10T10:12:47.921Z,46.2804
2023-05-10T10:13:49.971Z,46.8734
2023-05-10T10:14:51.982Z,46.8676
2023-05-10T10:15:54.075Z,46.5114
2023-05-10T10:17:06.407Z,46.0361
2023-05-10T10:17:58.143Z,46.5465
2023-05-10T10:19:00.438Z,46.6108
2023-05-10T10:20:02.192Z,46.7068
2023-05-10T10:21:04.417Z,46.8770
2023-05-10T10:22:06.309Z,46.6121
2023-05-10T10:23:08.294Z,46.5519
2023-05-10T10:24:10.394Z,46.8338
2023-05-10T10:25:12.402Z,47.1109
2023-05-10T10:26:14.429Z,46.7021
2023-05-10T10:27:16.541Z,46.6103
2023-05-10T10:28:18.853Z,46.7798
2023-05-10T10:29:20.561Z,46.4820
2023-05-10T10:30:22.622Z,46.5231
2023-05-10T10:31:24.697Z,46.5347
2023-05-10T10:32:26.782Z,46.3829
2023-05-10T10:33:29.252Z,45.9268
2023-05-10T10:34:30.816Z,45.9355
2023-05-10T10:35:32.879Z,45.8117
2023-05-10T10:36:34.931Z,45.9117
2023-05-10T10:37:37.028Z,45.7424
2023-05-10T10:38:39.066Z,45.4711
2023-05-10T10:39:41.031Z,45.7196
2023-05-10T10:40:43.069Z,45.6889
2023-05-10T10:41:45.141Z,45.8280
2023-05-10T10:42:47.187Z,45.6479
2023-05-10T10:43:49.206Z,45.4982
2023-05-10T10:44:51.251Z,45.8331
2023-05-10T10:45:53.302Z,45.7267
2023-05-10T10:46:55.361Z,45.6056
2023-05-10T10:47:57.474Z,45.5225
2023-05-10T10:48:59.484Z,45.7172
2023-05-10T10:50:01.592Z,45.3571
2023-05-10T10:51:03.523Z,46.0248
2023-05-10T10:52:05.580Z,45.8613
2023-05-10T10:53:07.779Z,45.8255
2023-05-10T10:54:09.671Z,45.8001
2023-05-10T10:55:11.753Z,45.8106
2023-05-10T10:56:13.742Z,45.9486
2023-05-10T10:57:15.883Z,45.8321
2023-05-10T10:58:17.842Z,46.1457
2023-05-10T10:59:19.858Z,46.4867
2023-05-10T11:00:21.968Z,46.8318
2023-05-10T11:01:23.998Z,47.3604
2023-05-10T11:02:26.122Z,47.0931
2023-05-10T11:03:28.057Z,46.4641
2023-05-10T11:04:30.155Z,46.5226
2023-05-10T11:05:32.222Z,46.2395
2023-05-10T11:06:34.256Z,46.5028
2023-05-10T11:07:36.208Z,45.9029
2023-05-10T11:08:39.074Z,46.0702
2023-05-10T11:09:40.400Z,46.0412
2023-05-10T11:10:42.328Z,45.7185
2023-05-10T11:11:44.435Z,45.5319
2023-05-10T11:12:46.448Z,45.4335
2023-05-10T11:13:50.955Z,45.8238
2023-05-10T11:14:50.760Z,45.9210
2023-05-10T11:15:52.640Z,45.8394
2023-05-10T11:16:54.688Z,45.3894
2023-05-10T11:17:58.647Z,45.5254
2023-05-10T11:18:58.863Z,45.6677
2023-05-10T11:20:00.802Z,45.1854
2023-05-10T11:21:02.836Z,45.4407
2023-05-10T11:22:04.854Z,45.6389
2023-05-10T11:23:06.908Z,46.2333
2023-05-10T11:24:08.941Z,46.2698
2023-05-10T11:25:11.016Z,46.3074
2023-05-10T11:26:13.557Z,45.9893
2023-05-10T11:27:16.382Z,45.7355
2023-05-10T11:28:17.119Z,45.4895
2023-05-10T11:29:19.172Z,45.4834
2023-05-10T11:30:21.288Z,45.7252
2023-05-10T11:31:23.324Z,45.1509
2023-05-10T11:32:25.382Z,45.2260
2023-05-10T11:33:27.339Z,45.4308
2023-05-10T11:34:29.388Z,45.3692
2023-05-10T11:35:31.447Z,45.8261
2023-05-10T11:36:33.581Z,45.8795
2023-05-10T11:37:35.514Z,45.7618
2023-05-10T11:38:37.685Z,45.3556
2023-05-10T11:39:39.661Z,45.2787
2023-05-10T11:40:41.661Z,45.4916
2023-05-10T11:41:43.731Z,45.1986
2023-05-10T11:42:45.823Z,44.9369
2023-05-10T11:43:47.821Z,45.2372
2023-05-10T11:44:49.851Z,45.0205
2023-05-10T11:45:52.061Z,45.0716
2023-05-10T11:46:53.937Z,45.2005
2023-05-10T11:47:56.045Z,44.8969
2023-05-10T11:48:58.146Z,44.7309
2023-05-10T11:50:00.147Z,44.5811
2023-05-10T11:51:02.267Z,44.3724
2023-05-10T11:52:04.280Z,44.3960
2023-05-10T11:53:06.296Z,44.4406
2023-05-10T11:54:08.284Z,44.2520
2023-05-10T11:55:10.339Z,44.6209
2023-05-10T11:56:12.427Z,45.5321
2023-05-10T11:57:14.408Z,44.8454
2023-05-10T11:58:16.493Z,44.7679
2023-05-10T11:59:18.509Z,44.4219
2023-05-10T12:00:20.594Z,44.2671
2023-05-10T12:01:22.659Z,44.4157
2023-05-10T12:02:24.705Z,44.2844
2023-05-10T12:03:26.809Z,44.1029
2023-05-10T12:04:28.977Z,44.5687
2023-05-10T12:05:30.828Z,44.2444
2023-05-10T12:06:32.987Z,43.8391
2023-05-10T12:07:35.026Z,43.6451
2023-05-10T12:08:36.935Z,43.4056
2023-05-10T12:09:43.828Z,43.2146
2023-05-10T12:10:41.013Z,43.2205
2023-05-10T12:11:44.318Z,43.3748
2023-05-10T12:12:45.494Z,43.6498
2023-05-10T12:13:49.076Z,43.6420
2023-05-10T12:14:49.193Z,43.5308
2023-05-10T12:15:51.269Z,43.5741
2023-05-10T12:16:53.608Z,43.3694
2023-05-10T12:17:55.480Z,43.6273
2023-05-10T12:18:57.448Z,43.8403
2023-05-10T12:19:59.518Z,43.8859
2023-05-10T12:21:01.502Z,43.8723
2023-05-10T12:22:03.565Z,44.2561
2023-05-10T12:23:05.612Z,44.4171
2023-05-10T12:24:10.007Z,44.2863
2023-05-10T12:25:09.681Z,44.3117
2023-05-10T12:26:11.828Z,45.0951
2023-05-10T12:27:13.795Z,45.4829
2023-05-10T12:28:15.810Z,46.1614
2023-05-10T12:29:19.685Z,46.4279
2023-05-10T12:30:20.625Z,47.0679
2023-05-10T12:31:22.049Z,46.8736
2023-05-10T12:32:24.032Z,46.8492
2023-05-10T12:33:26.077Z,46.8846
2023-05-10T12:34:29.610Z,46.5549
2023-05-10T12:35:31.153Z,46.7553
2023-05-10T12:36:32.314Z,46.9261
2023-05-10T12:37:34.271Z,46.9524
2023-05-10T12:38:36.416Z,46.5823
2023-05-10T12:39:38.498Z,46.7905
2023-05-10T12:40:42.223Z,46.5111
2023-05-10T12:41:43.721Z,46.5291
2023-05-10T12:42:45.124Z,46.8670
2023-05-10T12:43:46.670Z,47.5184
2023-05-10T12:44:48.691Z,48.2055
2023-05-10T12:45:50.878Z,48.2874
2023-05-10T12:46:52.749Z,48.0241
2023-05-10T12:47:55.271Z,48.2091
2023-05-10T12:49:08.103Z,48.1184
2023-05-10T12:50:11.143Z,48.3823
2023-05-10T12:51:02.664Z,47.8234
2023-05-10T12:52:03.012Z,48.3350
2023-05-10T12:53:05.036Z,48.4458
2023-05-10T12:54:07.113Z,48.7590
2023-05-10T12:55:09.176Z,48.8018
2023-05-10T12:56:11.272Z,48.8378
2023-05-10T12:57:13.208Z,48.9013
2023-05-10T12:58:27.785Z,48.8792
2023-05-10T12:59:17.375Z,48.7863
2023-05-10T13:00:19.389Z,48.6995
2023-05-10T13:01:21.515Z,48.6803
2023-05-10T13:02:23.498Z,48.5526
2023-05-10T13:03:25.544Z,48.5156
2023-05-10T13:04:27.602Z,48.9056
2023-05-10T13:05:29.587Z,48.8559
2023-05-10T13:06:31.773Z,49.4496
2023-05-10T13:07:33.681Z,49.1643
2023-05-10T13:08:36.293Z,48.9899
2023-05-10T13:09:37.781Z,48.8872
2023-05-10T13:10:39.842Z,49.2899
2023-05-10T13:11:41.848Z,49.2545
2023-05-10T13:12:43.904Z,49.2984
2023-05-10T13:13:45.940Z,48.6441
2023-05-10T13:14:48.009Z,48.3909
2023-05-10T13:15:50.009Z,47.9096
2023-05-10T13:16:52.112Z,47.8747
2023-05-10T13:17:54.157Z,48.0135
2023-05-10T13:18:56.169Z,48.2528
2023-05-10T13:19:58.254Z,47.9706
2023-05-10T13:21:00.240Z,48.0227
2023-05-10T13:22:02.286Z,48.6015
2023-05-10T13:23:04.336Z,48.8472
2023-05-10T13:24:06.437Z,49.0026
2023-05-10T13:25:08.431Z,48.8347
2023-05-10T13:26:11.099Z,48.5713
2023-05-10T13:27:13.098Z,48.6142
2023-05-10T13:28:14.564Z,48.7706
2023-05-10T13:29:16.783Z,48.6206
2023-05-10T13:30:18.858Z,48.5960
2023-05-10T13:31:20.720Z,48.6415
2023-05-10T13:32:22.756Z,48.7907
2023-05-10T13:33:24.822Z,49.1237
2023-05-10T13:34:26.844Z,49.4505
2023-05-10T13:35:30.057Z,49.3138
2023-05-10T13:36:30.971Z,49.2307
2023-05-10T13:37:32.951Z,49.3322
2023-05-10T13:38:35.020Z,49.2338
2023-05-10T13:39:37.053Z,49.3107
2023-05-10T13:40:39.166Z,49.3771
2023-05-10T13:41:41.146Z,49.3578
2023-05-10T13:42:43.221Z,49.5830
2023-05-10T13:43:45.295Z,49.5732
2023-05-10T13:44:47.326Z,49.3990
2023-05-10T13:45:49.360Z,49.6068
2023-05-10T13:46:52.261Z,49.6378
2023-05-10T13:47:53.868Z,49.6156
2023-05-10T13:48:55.492Z,50.0400
2023-05-10T13:49:59.151Z,50.0880
2023-05-10T13:50:59.550Z,50.2642
2023-05-10T13:52:01.624Z,50.1043
2023-05-10T13:53:03.678Z,50.0691
2023-05-10T13:54:05.734Z,50.4135
2023-05-10T13:55:07.913Z,50.2214
2023-05-10T13:56:41.270Z,50.0082
2023-05-10T13:57:16.248Z,50.0912
2023-05-10T13:58:16.117Z,50.1390
2023-05-10T13:59:16.038Z,50.2975
2023-05-10T14:00:18.008Z,50.3416
2023-05-10T14:01:20.194Z,50.4579
2023-05-10T14:02:22.284Z,50.2883
2023-05-10T14:03:24.275Z,50.3649
2023-05-10T14:04:26.226Z,50.3562
2023-05-10T14:05:28.469Z,50.3903
2023-05-10T14:06:30.236Z,50.4250
2023-05-10T14:07:32.281Z,50.2231
2023-05-10T14:08:34.371Z,50.3279
2023-05-10T14:09:36.385Z,50.1356
2023-05-10T14:10:40.255Z,50.7210
2023-05-10T14:11:40.525Z,50.6286
2023-05-10T14:12:42.528Z,51.2086
2023-05-10T14:13:44.578Z,50.5346
2023-05-10T14:14:47.318Z,50.5743
2023-05-10T14:15:48.648Z,50.4079
2023-05-10T14:16:50.910Z,50.1460
2023-05-10T14:17:52.797Z,49.8708
2023-05-10T14:18:54.796Z,50.0907
2023-05-10T14:19:56.853Z,50.4132
2023-05-10T14:20:59.353Z,50.3300
2023-05-10T14:22:00.948Z,50.9518
2023-05-10T14:23:02.965Z,51.2311
2023-05-10T14:24:04.981Z,51.3892
2023-05-10T14:25:07.623Z,51.5964
2023-05-10T14:26:09.318Z,51.6604
2023-05-10T14:27:11.321Z,52.0711
2023-05-10T14:28:13.284Z,51.8707
2023-05-10T14:29:15.200Z,51.6370
2023-05-10T14:30:17.309Z,51.7250
2023-05-10T14:31:19.744Z,51.4258
2023-05-10T14:32:21.424Z,51.3492
2023-05-10T14:33:23.627Z,51.0334
2023-05-10T14:34:25.519Z,50.6511
2023-05-10T14:35:27.473Z,50.7532
2023-05-10T14:36:31.207Z,51.3580
2023-05-10T14:37:31.639Z,52.2403
2023-05-10T14:38:33.660Z,51.9175
2023-05-10T14:39:35.689Z,51.4199
2023-05-10T14:40:37.720Z,51.1508
2023-05-10T14:41:42.662Z,50.9252
2023-05-10T14:42:41.761Z,51.4302
2023-05-10T14:43:43.822Z,51.4107
2023-05-10T14:44:45.881Z,51.4619
2023-05-10T14:45:47.950Z,51.1155
2023-05-10T14:46:50.076Z,51.0221
2023-05-10T14:47:53.764Z,50.9012
2023-05-10T14:48:54.062Z,50.9394
2023-05-10T14:49:56.089Z,50.9761
2023-05-10T14:50:58.172Z,51.4539
2023-05-10T14:52:00.367Z,51.2245
2023-05-10T14:53:03.728Z,51.5080
2023-05-10T14:54:04.285Z,51.1693
2023-05-10T14:55:06.930Z,50.8625
2023-05-10T14:56:08.402Z,50.7530
2023-05-10T14:57:10.396Z,50.6266
2023-05-10T14:58:12.507Z,50.2885
2023-05-10T14:59:14.515Z,50.5429
2023-05-10T15:00:16.772Z,50.6731
2023-05-10T15:01:18.582Z,51.1797
2023-05-10T15:02:20.709Z,51.6197
2023-05-10T15:03:22.820Z,51.2914
2023-05-10T15:04:25.964Z,51.5902
2023-05-10T15:05:26.857Z,51.6469
2023-05-10T15:06:28.777Z,52.0723
2023-05-10T15:07:30.986Z,51.4957
2023-05-10T15:08:32.920Z,51.6679
2023-05-10T15:09:34.913Z,51.4223
2023-05-10T15:10:36.926Z,51.2029
2023-05-10T15:11:39.071Z,51.0690
2023-05-10T15:12:41.045Z,51.1309
2023-05-10T15:13:43.090Z,51.0854
2023-05-10T15:14:45.102Z,51.5119
2023-05-10T15:15:47.204Z,51.4778
2023-05-10T15:16:49.212Z,51.5784
2023-05-10T15:17:51.425Z,51.3143
2023-05-10T15:18:53.364Z,51.5250
2023-05-10T15:19:55.358Z,51.2667
2023-05-10T15:20:57.458Z,51.3086
2023-05-10T15:21:59.524Z,51.2952
2023-05-10T15:23:01.503Z,50.6733
2023-05-10T15:24:03.526Z,50.5378
2023-05-10T15:25:05.624Z,50.3610
2023-05-10T15:26:07.667Z,50.4354
2023-05-10T15:27:09.693Z,50.3617
2023-05-10T15:28:12.661Z,50.6269
2023-05-10T15:29:13.736Z,50.2406
2023-05-10T15:30:15.851Z,50.4511
2023-05-10T15:31:17.857Z,50.5993
2023-05-10T15:32:19.910Z,50.1615
2023-05-10T15:33:22.608Z,49.9692
2023-05-10T15:34:24.029Z,50.1909
2023-05-10T15:35:26.516Z,50.2610
2023-05-10T15:36:28.063Z,50.0357
2023-05-10T15:37:30.117Z,50.2535
2023-05-10T15:38:32.129Z,50.4575
2023-05-10T15:39:34.209Z,50.4409
2023-05-10T15:40:36.241Z,50.4487
2023-05-10T15:41:38.271Z,50.4425
2023-05-10T15:42:40.346Z,50.2097
2023-05-10T15:43:42.571Z,50.0147
2023-05-10T15:44:44.461Z,49.8608
2023-05-10T15:45:46.454Z,49.8773
2023-05-10T15:46:49.438Z,49.8665
2023-05-10T15:47:50.624Z,50.2191
2023-05-10T15:48:52.656Z,49.8628
2023-05-10T15:49:55.071Z,49.8076
2023-05-10T15:50:56.740Z,50.1605
2023-05-10T15:51:58.709Z,50.5425
2023-05-10T15:53:00.934Z,50.4932
2023-05-10T15:54:07.625Z,50.2784
2023-05-10T15:55:04.921Z,50.3271
2023-05-10T15:56:06.917Z,49.7943
2023-05-10T15:57:09.024Z,50.3028
2023-05-10T15:58:13.618Z,50.3831
2023-05-10T15:59:13.035Z,49.9698
2023-05-10T16:00:15.104Z,49.8432
2023-05-10T16:01:17.202Z,49.6855
2023-05-10T16:02:19.241Z,49.1697
2023-05-10T16:03:21.259Z,48.9813
2023-05-10T16:04:23.274Z,48.3311
2023-05-10T16:05:25.346Z,47.6773
2023-05-10T16:06:27.417Z,47.7829
2023-05-10T16:07:29.588Z,47.6768
2023-05-10T16:08:36.697Z,47.7056
2023-05-10T16:09:33.629Z,47.6401
2023-05-10T16:10:35.565Z,47.9829
2023-05-10T16:11:37.785Z,48.2739
2023-05-10T16:12:39.726Z,47.9109
2023-05-10T16:13:41.711Z,48.3456
2023-05-10T16:14:43.740Z,48.2230
2023-05-10T16:15:45.927Z,48.5140
2023-05-10T16:16:47.924Z,48.5507
2023-05-10T16:17:50.108Z,48.5134
2023-05-10T16:18:52.242Z,48.6286
2023-05-10T16:19:54.005Z,48.8025
2023-05-10T16:20:56.023Z,48.9827
2023-05-10T16:21:58.490Z,49.2505
2023-05-10T16:23:00.127Z,49.1676
2023-05-10T16:24:02.177Z,49.3406
2023-05-10T16:25:04.211Z,49.2660
2023-05-10T16:26:06.267Z,49.6270
2023-05-10T16:27:08.278Z,49.0094
2023-05-10T16:28:10.420Z,48.6838
2023-05-10T16:29:12.410Z,48.6517
2023-05-10T16:30:14.408Z,48.5671
2023-05-10T16:31:16.464Z,48.7305
2023-05-10T16:32:18.524Z,48.9112
2023-05-10T16:33:20.630Z,48.8793
2023-05-10T16:34:22.596Z,49.4072
2023-05-10T16:35:24.654Z,49.1776
2023-05-10T16:36:26.892Z,49.0710
2023-05-10T16:37:28.838Z,48.9727
2023-05-10T16:38:30.754Z,48.8106
2023-05-10T16:39:32.833Z,48.6305
2023-05-10T16:40:43.677Z,48.4568
2023-05-10T16:41:36.874Z,47.9067
2023-05-10T16:42:38.977Z,47.3722
2023-05-10T16:43:41.059Z,47.4510
2023-05-10T16:44:43.112Z,47.2582
2023-05-10T16:45:45.762Z,47.6057
2023-05-10T16:46:47.738Z,47.5275
2023-05-10T16:47:49.300Z,47.7830
2023-05-10T16:48:51.308Z,47.8704
2023-05-10T16:49:53.305Z,48.1155
2023-05-10T16:50:55.409Z,47.7408
2023-05-10T16:51:57.416Z,47.3370
2023-05-10T16:52:59.577Z,47.6047
2023-05-10T16:54:01.523Z,47.4645
2023-05-10T16:55:03.602Z,47.5106
2023-05-10T16:56:05.564Z,47.4639
2023-05-10T16:57:07.583Z,47.1389
2023-05-10T16:58:09.643Z,46.9395
2023-05-10T16:59:11.822Z,47.2082
2023-05-10T17:00:14.769Z,47.6150
2023-05-10T17:01:15.820Z,47.9207